地図

経路データ

SID SEASON NUMBER BASIN SUBBASIN NAME ISO_TIME NATURE LAT LON WMO_WIND WMO_PRES WMO_AGENCY TRACK_TYPE DIST2LAND LANDFALL IFLAG USA_AGENCY USA_ATCF_ID USA_LAT USA_LON USA_RECORD USA_STATUS USA_WIND USA_PRES USA_SSHS USA_R34_NE USA_R34_SE USA_R34_SW USA_R34_NW USA_R50_NE USA_R50_SE USA_R50_SW USA_R50_NW USA_R64_NE USA_R64_SE USA_R64_SW USA_R64_NW USA_POCI USA_ROCI USA_RMW USA_EYE TOKYO_LAT TOKYO_LON TOKYO_GRADE TOKYO_WIND TOKYO_PRES TOKYO_R50_DIR TOKYO_R50_LONG TOKYO_R50_SHORT TOKYO_R30_DIR TOKYO_R30_LONG TOKYO_R30_SHORT TOKYO_LAND CMA_LAT CMA_LON CMA_CAT CMA_WIND CMA_PRES HKO_LAT HKO_LON HKO_CAT HKO_WIND HKO_PRES NEWDELHI_LAT NEWDELHI_LON NEWDELHI_GRADE NEWDELHI_WIND NEWDELHI_PRES NEWDELHI_CI NEWDELHI_DP NEWDELHI_POCI REUNION_LAT REUNION_LON REUNION_TYPE REUNION_WIND REUNION_PRES REUNION_TNUM REUNION_CI REUNION_RMW REUNION_R34_NE REUNION_R34_SE REUNION_R34_SW REUNION_R34_NW REUNION_R50_NE REUNION_R50_SE REUNION_R50_SW REUNION_R50_NW REUNION_R64_NE REUNION_R64_SE REUNION_R64_SW REUNION_R64_NW BOM_LAT BOM_LON BOM_TYPE BOM_WIND BOM_PRES BOM_TNUM BOM_CI BOM_RMW BOM_R34_NE BOM_R34_SE BOM_R34_SW BOM_R34_NW BOM_R50_NE BOM_R50_SE BOM_R50_SW BOM_R50_NW BOM_R64_NE BOM_R64_SE BOM_R64_SW BOM_R64_NW BOM_ROCI BOM_POCI BOM_EYE BOM_POS_METHOD BOM_PRES_METHOD NADI_LAT NADI_LON NADI_CAT NADI_WIND NADI_PRES WELLINGTON_LAT WELLINGTON_LON WELLINGTON_WIND WELLINGTON_PRES DS824_LAT DS824_LON DS824_STAGE DS824_WIND DS824_PRES TD9636_LAT TD9636_LON TD9636_STAGE TD9636_WIND TD9636_PRES TD9635_LAT TD9635_LON TD9635_WIND TD9635_PRES TD9635_ROCI NEUMANN_LAT NEUMANN_LON NEUMANN_CLASS NEUMANN_WIND NEUMANN_PRES MLC_LAT MLC_LON MLC_CLASS MLC_WIND MLC_PRES USA_GUST BOM_GUST BOM_GUST_PER REUNION_GUST REUNION_GUST_PER USA_SEAHGT USA_SEARAD_NE USA_SEARAD_SE USA_SEARAD_SW USA_SEARAD_NW STORM_SPEED STORM_DIR
2008257N28148 2008 65 WP MM NOT_NAMED 2008-09-12 18:00:00 NR 28.1000 147.500 main 1037 994 O_____________ jtwc_wp WP172008 28.1000 147.500 DB 15 1010 -3 11 4
2008257N28148 2008 65 WP MM NOT_NAMED 2008-09-12 21:00:00 NR 28.6425 147.547 main 994 950 P_____________ WP172008 28.6425 147.547 DB 17 1008 -3 11 5
2008257N28148 2008 65 WP MM NOT_NAMED 2008-09-13 00:00:00 TS 29.2000 147.600 main 950 910 O_____________ jtwc_wp WP172008 29.2000 147.600 TD 20 1007 -1 12 5
2008257N28148 2008 65 WP MM NOT_NAMED 2008-09-13 03:00:00 TS 29.7850 147.657 main 910 865 P_____________ WP172008 29.7850 147.657 TD 20 1007 -1 12 4
2008257N28148 2008 65 WP MM NOT_NAMED 2008-09-13 06:00:00 TS 30.4000 147.700 main 865 819 O_____________ jtwc_wp WP172008 30.4000 147.700 TD 20 1007 -1 13 360
2008257N28148 2008 65 WP MM NOT_NAMED 2008-09-13 09:00:00 TS 31.0498 147.649 main 812 769 P_____________ WP172008 31.0498 147.649 TD 20 1007 -1 13 1
2008257N28148 2008 65 WP MM NOT_NAMED 2008-09-13 12:00:00 TS 31.7000 147.700 main 769 752 O_____________ jtwc_wp WP172008 31.7000 147.700 TD 20 1007 -1 13 15
2008257N28148 2008 65 WP MM NOT_NAMED 2008-09-13 15:00:00 TS 32.3002 148.032 main 754 753 P_____________ WP172008 32.3002 148.032 TD 22 1005 -1 14 29
2008257N28148 2008 65 WP MM NOT_NAMED 2008-09-13 18:00:00 TS 32.9000 148.500 main 763 758 O_____________ jtwc_wp WP172008 32.9000 148.500 TD 25 1004 -1 15 30
2008257N28148 2008 65 WP MM NOT_NAMED 2008-09-13 21:00:00 TS 33.5494 148.906 main 770 766 P_____________ WP172008 33.5494 148.906 TD 27 1002 -1 15 30
2008257N28148 2008 65 WP MM NOT_NAMED 2008-09-14 00:00:00 TS 34.2000 149.400 main 790 790 O_____________ jtwc_wp WP172008 34.2000 149.400 TD 30 1000 -1 1008 150 30 15 36
2008257N28148 2008 65 WP MM NOT_NAMED 2008-09-14 03:00:00 TS 34.7914 150.005 main 830 830 P_____________ WP172008 34.7914 150.005 TD 32 998 -1 1008 150 30 17 44
2008257N28148 2008 65 WP MM NOT_NAMED 2008-09-14 06:00:00 TS 35.4000 150.800 main 885 885 O_____________ jtwc_wp WP172008 35.4000 150.800 TS 35 996 0 1008 150 30 19 49
2008257N28148 2008 65 WP MM NOT_NAMED 2008-09-14 09:00:00 TS 36.0537 151.783 main 929 929 P_____________ WP172008 36.0537 151.783 TS 35 996 0 1008 150 30 23 52
2008257N28148 2008 65 WP MM NOT_NAMED 2008-09-14 12:00:00 TS 36.8000 153.000 main 954 951 O_____________ jtwc_wp WP172008 36.8000 153.000 TS 35 996 0 1008 150 30 26 53
2008257N28148 2008 65 WP MM NOT_NAMED 2008-09-14 15:00:00 TS 37.6395 154.421 main 970 935 P_____________ WP172008 37.6395 154.421 TS 35 996 0 30 53
2008257N28148 2008 65 WP MM NOT_NAMED 2008-09-14 18:00:00 ET 38.6000 156.000 main 934 918 O_____________ jtwc_wp WP172008 38.6000 156.000 EX 35 996 -4 32 51
2008257N28148 2008 65 WP MM NOT_NAMED 2008-09-14 21:00:00 ET 39.6451 157.603 main 925 916 P_____________ WP172008 39.6451 157.603 EX 35 996 -4 34 49
2008257N28148 2008 65 WP MM NOT_NAMED 2008-09-15 00:00:00 ET 40.8000 159.300 main 925 924 O_____________ jtwc_wp WP172008 40.8000 159.300 EX 35 996 -4 1008 150 30 36 48
2008257N28148 2008 65 WP MM NOT_NAMED 2008-09-15 03:00:00 ET 42.0363 161.101 main 965 936 P_____________ WP172008 42.0363 161.101 EX 35 996 -4 37 48
2008257N28148 2008 65 WP MM NOT_NAMED 2008-09-15 06:00:00 ET 43.3000 163.000 main 935 O_____________ jtwc_wp WP172008 43.3000 163.000 EX 35 996 -4 38 48

デジタル台風データ・検索

IBTrACS Databaseについて

本データベースは、米国NOAAが公開する1842年以降の世界の熱帯低気圧のベストトラックデータアーカイブInternational Best Track Archive for Climate Stewardship (IBTrACS)を、ウェブで閲覧しやすい形式に変換したものです。

最終更新日:2021-10-21